Fellows, California
Current Conditions -  °F | °C
As of 6:54 PM on Monday 20 Oct 2014 (Local Time) from KBFL Reporting Station
Clear Clear  
Wind Chill: 75°   Ceiling: Unl
Heat Index: 75°   Visibility: 10mi
Dew Point: 50°   Wind: 0mph
Humidity: 41%   Direction: NA
Pressure: 29.89"   Gusts: NA
Location:  35.18°N, 119.54°W
Report Text: KBFL 210154Z 00000KT 10SM CLR 24/10 A2989 RMK AO2 SLP117 T02390100
Loading
Personal Weather Stations






























Interactive Weather Map
Tropical Storm Tracking
New forecast layout! Learn more

10-Day Weather Forecast

Advertisements
Track Severe Weather on mobile